Time;durP1;ratioP1;P1;durP2;ratioP2;P2;SDS_P1;SDS_P2;PMS_P1;PMS_P2;Temp;Humidity;BMP_temperature;BMP_pressure;BME280_temperature;BME280_humidity;BME280_pressure;Samples;Min_cycle;Max_cycle;Signal;HPM_P1;HPM_P2
2024/03/16 00:01:10;;;;;;;0.00;0.00;;;;;;;;;;4922825;29;20028;-92
2024/03/16 00:03:36;;;;;;;0.00;0.00;;;;;;;;;;4919307;29;20035;-92
2024/03/16 00:06:02;;;;;;;0.00;0.00;;;;;;;;;;4915775;29;20048;-92
2024/03/16 00:08:28;;;;;;;0.00;0.00;;;;;;;;;;4920168;29;20052;-92
2024/03/16 00:10:54;;;;;;;0.00;0.00;;;;;;;;;;4914333;29;20133;-93
2024/03/16 00:13:20;;;;;;;0.00;0.00;;;;;;;;;;4916091;29;20096;-92
2024/03/16 00:15:49;;;;;;;0.00;0.00;;;;;;;;;;4921084;29;20111;-92
2024/03/16 00:18:15;;;;;;;0.00;0.00;;;;;;;;;;4922660;29;20047;-92
2024/03/16 00:20:41;;;;;;;0.00;0.00;;;;;;;;;;4926638;29;20031;-92
2024/03/16 00:23:07;;;;;;;0.00;0.00;;;;;;;;;;4918616;29;20056;-93
2024/03/16 00:25:33;;;;;;;0.00;0.00;;;;;;;;;;4923197;29;20118;-93
2024/03/16 00:28:00;;;;;;;0.00;0.00;;;;;;;;;;4918131;29;20031;-92
2024/03/16 00:30:26;;;;;;;0.00;0.00;;;;;;;;;;4923459;29;20043;-93
2024/03/16 00:32:52;;;;;;;0.00;0.00;;;;;;;;;;4921074;29;20032;-92
2024/03/16 00:35:18;;;;;;;0.00;0.00;;;;;;;;;;4916287;29;20039;-92
2024/03/16 00:37:45;;;;;;;0.00;0.00;;;11.50;99.90;;;;;;4916121;29;20089;-93
2024/03/16 00:40:11;;;;;;;0.03;0.03;;;;;;;;;;4920784;29;20028;-93
2024/03/16 00:42:37;;;;;;;0.00;0.00;;;;;;;;;;4922155;29;20036;-92
2024/03/16 00:45:04;;;;;;;0.00;0.00;;;;;;;;;;4920168;29;20039;-92
2024/03/16 00:47:29;;;;;;;0.00;0.00;;;;;;;;;;4928355;29;20048;-92
2024/03/16 00:49:55;;;;;;;0.00;0.00;;;;;;;;;;4927231;29;20036;-92
2024/03/16 00:52:21;;;;;;;0.00;0.00;;;;;;;;;;4920436;29;20039;-93
2024/03/16 00:54:47;;;;;;;0.00;0.00;;;;;;;;;;4921122;29;20039;-93
2024/03/16 00:57:13;;;;;;;0.00;0.00;;;;;;;;;;4923522;29;20028;-93
2024/03/16 00:59:39;;;;;;;0.03;0.03;;;;;;;;;;4916636;29;20020;-91
2024/03/16 01:02:05;;;;;;;0.00;0.00;;;;;;;;;;4924062;29;20460;-93
2024/03/16 01:04:32;;;;;;;0.00;0.00;;;;;;;;;;4912639;29;20031;-92
2024/03/16 01:06:58;;;;;;;0.00;0.00;;;;;;;;;;4912738;29;20451;-92
2024/03/16 01:09:25;;;;;;;0.00;0.00;;;;;;;;;;4911246;29;20122;-92
2024/03/16 01:11:52;;;;;;;0.00;0.00;;;;;;;;;;4917259;29;20031;-91
2024/03/16 01:14:18;;;;;;;0.00;0.00;;;;;;;;;;4915692;29;20126;-92
2024/03/16 01:16:44;;;;;;;0.00;0.00;;;;;;;;;;4920321;29;20044;-94
2024/03/16 01:19:10;;;;;;;0.00;0.00;;;;;;;;;;4917124;29;20116;-92
2024/03/16 01:21:36;;;;;;;0.00;0.00;;;;;;;;;;4915755;29;20024;-93
2024/03/16 01:24:03;;;;;;;0.00;0.00;;;;;;;;;;4912326;29;20243;-92
2024/03/16 01:26:29;;;;;;;0.00;0.00;;;;;;;;;;4916536;29;20028;-93
2024/03/16 01:28:55;;;;;;;0.00;0.00;;;;;;;;;;4915757;29;20024;-90
2024/03/16 01:31:21;;;;;;;0.00;0.00;;;;;;;;;;4917244;29;20032;-93
2024/03/16 01:33:49;;;;;;;0.00;0.00;;;;;;;;;;4912988;29;20024;-93
2024/03/16 01:36:15;;;;;;;0.00;0.00;;;;;;;;;;4912756;29;20048;-93
2024/03/16 01:38:41;;;;;;;0.00;0.00;;;;;;;;;;4914827;29;20033;-91
2024/03/16 01:41:13;;;;;;;0.00;0.00;;;;;;;;;;4912426;29;20033;-93
2024/03/16 01:43:39;;;;;;;0.00;0.00;;;;;;;;;;4914396;29;20032;-93
2024/03/16 01:46:09;;;;;;;0.00;0.00;;;10.90;99.90;;;;;;4915005;29;20029;-92
2024/03/16 01:48:37;;;;;;;;;;;10.90;99.90;;;;;;4915292;29;20103;-93
2024/03/16 05:13:06;;;;;;;0.00;0.00;;;10.90;99.90;;;;;;652432;23;20299;-92
2024/03/16 05:15:32;;;;;;;0.00;0.00;;;;;;;;;;4942188;29;20075;-93
2024/03/16 05:17:59;;;;;;;0.00;0.00;;;;;;;;;;4945976;29;20163;-93
2024/03/16 05:20:25;;;;;;;0.00;0.00;;;;;;;;;;4951213;29;20050;-94
2024/03/16 05:22:52;;;;;;;0.00;0.00;;;;;;;;;;4940070;29;20074;-93
2024/03/16 05:25:18;;;;;;;0.00;0.00;;;;;;;;;;4940456;29;20020;-93
2024/03/16 05:27:44;;;;;;;0.00;0.00;;;;;;;;;;4946810;29;20012;-93
2024/03/16 05:30:11;;;;;;;0.00;0.00;;;;;;;;;;4939495;29;20104;-94
2024/03/16 05:32:45;;;;;;;0.00;0.00;;;;;;;;;;4934535;29;20491;-91
2024/03/16 05:35:30;;;;;;;0.00;0.00;;;;;;;;;;4951641;29;20107;-93
2024/03/16 05:38:06;;;;;;;0.00;0.00;;;;;;;;;;4940988;29;20099;-93
2024/03/16 05:40:45;;;;;;;0.00;0.00;;;;;;;;;;4938959;29;20035;-92
2024/03/16 05:43:12;;;;;;;0.00;0.00;;;;;;;;;;4944154;28;20099;-92
2024/03/16 05:45:40;;;;;;;0.00;0.00;;;;;;;;;;4935502;29;20024;-93
2024/03/16 05:48:12;;;;;;;0.00;0.00;;;;;;;;;;4938902;29;20043;-92
2024/03/16 05:50:38;;;;;;;0.00;0.00;;;;;;;;;;4942665;29;20072;-93
2024/03/16 05:53:04;;;;;;;0.00;0.00;;;;;;;;;;4940002;29;20280;-93
2024/03/16 05:55:30;;;;;;;0.00;0.00;;;;;;;;;;4940647;29;20031;-93
2024/03/16 05:57:56;;;;;;;0.00;0.00;;;;;;;;;;4933941;29;20020;-92
2024/03/16 06:00:22;;;;;;;0.00;0.00;;;;;;;;;;4942302;29;20032;-93
2024/03/16 06:02:48;;;;;;;0.00;0.00;;;;;;;;;;4936867;29;20031;-92
2024/03/16 06:05:14;;;;;;;0.00;0.00;;;;;;;;;;4939878;29;20241;-93
2024/03/16 06:07:42;;;;;;;0.00;0.00;;;;;;;;;;4937829;29;20012;-92
2024/03/16 06:10:10;;;;;;;0.00;0.00;;;;;;;;;;4940359;29;20092;-93
2024/03/16 06:12:37;;;;;;;0.00;0.00;;;;;;;;;;4941606;29;20059;-93
2024/03/16 06:15:05;;;;;;;0.00;0.00;;;;;;;;;;4940815;29;20066;-94
2024/03/16 06:17:31;;;;;;;0.00;0.00;;;;;;;;;;4939932;29;20032;-94
2024/03/16 06:19:57;;;;;;;0.00;0.00;;;;;;;;;;4940211;29;20334;-92
2024/03/16 06:22:23;;;;;;;0.00;0.00;;;;;;;;;;4940332;29;20463;-93
2024/03/16 06:24:49;;;;;;;0.00;0.00;;;;;;;;;;4941402;29;20013;-92
2024/03/16 06:27:21;;;;;;;0.00;0.00;;;;;;;;;;4953003;29;20034;-93
2024/03/16 06:29:54;;;;;;;0.00;0.00;;;;;;;;;;4950778;29;20087;-93
2024/03/16 06:32:34;;;;;;;0.00;0.00;;;;;;;;;;4937807;29;20031;-93
2024/03/16 06:35:28;;;;;;;0.00;0.00;;;11.00;99.90;;;;;;4941788;29;20146;-93
2024/03/16 06:37:59;;;;;;;0.00;0.00;;;;;;;;;;4940448;29;20192;-93
2024/03/16 06:40:30;;;;;;;0.00;0.00;;;;;;;;;;4936622;29;20032;-92
2024/03/16 06:42:56;;;;;;;0.00;0.00;;;;;;;;;;4941741;29;20035;-94
2024/03/16 06:45:22;;;;;;;0.00;0.00;;;;;;;;;;4946402;29;20063;-90
2024/03/16 06:47:49;;;;;;;0.00;0.00;;;;;;;;;;4942362;29;20527;-94
2024/03/16 06:50:21;;;;;;;0.00;0.00;;;;;;;;;;4938489;29;20054;-94
2024/03/16 07:00:51;;;;;;;0.10;0.10;;;10.10;99.90;;;;;;4906209;29;20041;-88
2024/03/16 07:03:17;;;;;;;0.10;0.10;;;;;;;;;;4904989;29;20041;-89
2024/03/16 07:05:43;;;;;;;0.10;0.10;;;;;;;;;;4902124;29;20091;-90
2024/03/16 07:08:10;;;;;;;0.10;0.10;;;;;;;;;;4907957;29;20479;-88
2024/03/16 07:10:36;;;;;;;0.10;0.10;;;;;;;;;;4903751;29;20093;-89
2024/03/16 07:13:02;;;;;;;0.10;0.10;;;9.30;99.90;;;;;;4907994;29;20047;-89
2024/03/16 07:15:28;;;;;;;0.10;0.10;;;9.20;99.90;;;;;;4905133;29;20032;-87
2024/03/16 07:17:54;;;;;;;0.10;0.10;;;;;;;;;;4902126;29;20493;-91
2024/03/16 07:20:20;;;;;;;0.10;0.10;;;;;;;;;;4906136;29;20043;-88
2024/03/16 07:22:45;;;;;;;0.10;0.10;;;;;;;;;;4898726;29;20123;-90
2024/03/16 07:25:13;;;;;;;0.10;0.10;;;;;;;;;;4910923;29;20100;-90
2024/03/16 07:27:39;;;;;;;0.10;0.10;;;;;;;;;;4899123;29;20640;-90
2024/03/16 07:30:05;;;;;;;0.10;0.10;;;9.10;99.90;;;;;;4901103;29;20035;-89
2024/03/16 07:32:31;;;;;;;0.10;0.10;;;;;;;;;;4896684;29;20033;-90
2024/03/16 07:34:56;;;;;;;0.10;0.10;;;;;;;;;;4901383;29;20032;-89
2024/03/16 07:37:22;;;;;;;0.10;0.10;;;;;;;;;;4902534;29;20040;-90
2024/03/16 07:39:48;;;;;;;0.10;0.10;;;;;;;;;;4907952;29;20047;-89
2024/03/16 07:42:14;;;;;;;0.10;0.10;;;;;;;;;;4901827;29;20029;-90
2024/03/16 07:44:40;;;;;;;0.10;0.10;;;;;;;;;;4899413;29;20060;-90
2024/03/16 07:47:06;;;;;;;0.10;0.10;;;;;;;;;;4896668;29;20664;-90
2024/03/16 07:49:32;;;;;;;0.10;0.10;;;;;;;;;;4897093;29;20572;-87
2024/03/16 07:51:58;;;;;;;0.10;0.10;;;8.70;99.90;;;;;;4904765;29;20116;-90
2024/03/16 07:54:24;;;;;;;0.10;0.10;;;;;;;;;;4906943;29;20037;-89
2024/03/16 07:56:51;;;;;;;0.08;0.08;;;;;;;;;;4902959;29;20110;-89
2024/03/16 07:59:19;;;;;;;0.10;0.10;;;;;;;;;;4898968;29;20065;-90
2024/03/16 08:01:45;;;;;;;0.10;0.10;;;;;;;;;;4902114;29;20036;-89
2024/03/16 08:04:11;;;;;;;0.10;0.10;;;;;;;;;;4901656;29;20028;-89
2024/03/16 08:06:37;;;;;;;0.00;0.00;;;;;;;;;;4899644;29;20517;-90
2024/03/16 08:09:08;;;;;;;0.10;0.10;;;;;;;;;;4902144;29;20044;-90
2024/03/16 08:11:34;;;;;;;0.10;0.10;;;;;;;;;;4903619;29;20037;-89
2024/03/16 08:14:00;;;;;;;0.10;0.10;;;;;;;;;;4901132;29;20057;-89
2024/03/16 08:16:26;;;;;;;0.10;0.10;;;;;;;;;;4901295;29;20067;-90
2024/03/16 08:18:52;;;;;;;0.10;0.10;;;;;;;;;;4900012;29;20066;-88
2024/03/16 08:21:18;;;;;;;0.10;0.10;;;;;;;;;;4902660;29;20446;-91
2024/03/16 08:23:43;;;;;;;0.10;0.10;;;8.70;99.90;;;;;;4903538;29;20537;-90
2024/03/16 08:26:09;;;;;;;0.10;0.10;;;8.80;99.90;;;;;;4902368;29;20060;-88
2024/03/16 08:28:35;;;;;;;0.10;0.10;;;;;;;;;;4906198;29;20030;-91
2024/03/16 08:31:01;;;;;;;0.10;0.10;;;;;;;;;;4912118;29;20505;-89
2024/03/16 08:33:27;;;;;;;0.10;0.10;;;;;;;;;;4904414;29;20037;-91
2024/03/16 08:35:53;;;;;;;0.10;0.10;;;;;;;;;;4901889;29;20029;-90
2024/03/16 08:38:19;;;;;;;0.10;0.10;;;;;;;;;;4903512;29;20097;-90
2024/03/16 08:40:46;;;;;;;0.10;0.10;;;8.90;99.90;;;;;;4908452;29;20025;-90
2024/03/16 08:43:12;;;;;;;0.10;0.10;;;;;;;;;;4904230;29;20045;-90
2024/03/16 08:45:39;;;;;;;0.10;0.10;;;;;;;;;;4899702;29;20117;-90
2024/03/16 08:48:06;;;;;;;0.10;0.10;;;8.90;99.90;;;;;;4898910;29;20038;-89
2024/03/16 08:50:32;;;;;;;0.10;0.10;;;;;;;;;;4911126;29;20035;-89
2024/03/16 08:52:58;;;;;;;0.10;0.10;;;;;;;;;;4906372;29;20078;-89
2024/03/16 08:55:25;;;;;;;0.10;0.10;;;8.70;99.90;;;;;;4905515;29;20085;-89
2024/03/16 08:57:51;;;;;;;0.03;0.03;;;;;;;;;;4913667;29;20028;-89
2024/03/16 09:00:17;;;;;;;0.10;0.10;;;;;;;;;;4902350;29;20043;-89
2024/03/16 09:02:43;;;;;;;0.10;0.10;;;;;;;;;;4901055;29;20474;-90
2024/03/16 09:05:09;;;;;;;0.10;0.10;;;;;;;;;;4900407;29;20033;-88
2024/03/16 09:07:39;;;;;;;0.10;0.10;;;8.50;99.90;;;;;;4905520;29;20039;-90
2024/03/16 09:10:10;;;;;;;0.10;0.10;;;8.60;99.90;;;;;;4912192;29;20592;-90
2024/03/16 09:12:36;;;;;;;0.10;0.10;;;8.70;99.90;;;;;;4900434;29;20032;-90
2024/03/16 09:15:05;;;;;;;0.00;0.00;;;8.70;99.90;;;;;;4904887;29;20398;-89
2024/03/16 09:17:32;;;;;;;0.10;0.10;;;;;;;;;;4900561;29;20089;-90
2024/03/16 09:19:58;;;;;;;0.10;0.10;;;;;;;;;;4898246;29;20618;-89
2024/03/16 09:22:25;;;;;;;0.10;0.10;;;;;;;;;;4902981;29;20035;-90
2024/03/16 09:24:51;;;;;;;0.00;0.00;;;;;;;;;;4904151;29;20024;-90
2024/03/16 09:27:17;;;;;;;0.10;0.10;;;;;;;;;;4899345;29;20482;-90
2024/03/16 09:29:43;;;;;;;0.10;0.10;;;8.50;99.90;;;;;;4909807;29;20068;-90
2024/03/16 09:32:10;;;;;;;0.10;0.10;;;;;;;;;;4902102;29;20032;-91
2024/03/16 09:34:36;;;;;;;0.10;0.10;;;;;;;;;;4908341;29;20115;-90
2024/03/16 09:37:02;;;;;;;0.10;0.10;;;;;;;;;;4909899;29;20132;-90
2024/03/16 09:39:29;;;;;;;0.10;0.10;;;;;;;;;;4913901;29;20032;-91
2024/03/16 09:41:57;;;;;;;0.10;0.10;;;;;;;;;;4898090;29;20028;-91
2024/03/16 09:44:23;;;;;;;0.10;0.10;;;;;;;;;;4898261;29;20024;-91
2024/03/16 09:46:51;;;;;;;0.10;0.10;;;9.10;99.90;;;;;;4902423;29;20032;-89
2024/03/16 09:49:17;;;;;;;0.10;0.10;;;;;;;;;;4921319;29;20037;-90
2024/03/16 09:51:43;;;;;;;0.10;0.10;;;;;;;;;;4900019;29;20037;-91
2024/03/16 09:54:10;;;;;;;0.00;0.00;;;9.00;99.90;;;;;;4901842;29;20051;-91
2024/03/16 09:56:39;;;;;;;0.10;0.10;;;;;;;;;;4910988;29;20029;-91
2024/03/16 09:59:12;;;;;;;0.10;0.10;;;8.80;99.90;;;;;;4909660;29;20029;-91
2024/03/16 10:01:38;;;;;;;0.10;0.10;;;;;;;;;;4902391;29;20024;-91
2024/03/16 10:04:07;;;;;;;0.10;0.10;;;8.90;99.90;;;;;;4914574;29;20037;-90
2024/03/16 10:06:33;;;;;;;0.07;0.07;;;;;;;;;;4911237;29;20101;-91
2024/03/16 10:09:13;;;;;;;0.10;0.10;;;8.70;99.90;;;;;;4898102;29;20301;-91
2024/03/16 10:11:43;;;;;;;;;;;8.80;99.90;;;;;;4898947;29;20029;-91
2024/03/16 10:14:13;;;;;;;;;;;8.90;99.90;;;;;;4914655;29;19908;-91
2024/03/16 10:16:40;;;;;;;0.05;0.05;;;;;;;;;;4897875;29;20331;-91
2024/03/16 10:19:10;;;;;;;0.10;0.10;;;9.00;99.90;;;;;;4898159;29;20124;-91
2024/03/16 10:21:35;;;;;;;0.10;0.10;;;9.00;99.90;;;;;;4899777;29;20032;-91
2024/03/16 10:24:02;;;;;;;0.10;0.10;;;;;;;;;;4907278;29;20052;-92
2024/03/16 10:26:30;;;;;;;0.10;0.10;;;;;;;;;;4903959;29;20020;-92
2024/03/16 10:29:01;;;;;;;0.00;0.00;;;9.40;99.90;;;;;;4904729;29;20028;-91
2024/03/16 10:31:29;;;;;;;0.10;0.10;;;;;;;;;;4896917;29;20035;-91
2024/03/16 10:33:59;;;;;;;0.10;0.10;;;9.30;99.90;;;;;;4897832;29;20028;-91
2024/03/16 10:36:26;;;;;;;0.10;0.10;;;9.30;99.90;;;;;;4902240;29;20032;-90
2024/03/16 10:38:53;;;;;;;0.10;0.10;;;;;;;;;;4902092;29;20435;-90
2024/03/16 10:41:19;;;;;;;0.10;0.10;;;9.10;99.90;;;;;;4907596;29;20028;-91
2024/03/16 10:43:45;;;;;;;0.10;0.10;;;;;;;;;;4904498;29;20025;-90
2024/03/16 10:46:15;;;;;;;0.10;0.10;;;9.10;99.90;;;;;;4909046;29;20024;-91
2024/03/16 10:48:44;;;;;;;0.10;0.10;;;9.20;99.90;;;;;;4896233;29;20063;-91
2024/03/16 10:51:15;;;;;;;0.10;0.10;;;9.10;99.90;;;;;;4903972;29;20041;-91
2024/03/16 10:53:41;;;;;;;0.10;0.10;;;10.20;99.90;;;;;;4905706;29;20035;-92
2024/03/16 10:56:07;;;;;;;0.10;0.10;;;;;;;;;;4900406;29;20096;-91
2024/03/16 10:58:33;;;;;;;0.10;0.10;;;;;;;;;;4911807;29;20050;-91
2024/03/16 11:01:15;;;;;;;0.10;0.10;;;9.30;99.90;;;;;;4909384;29;20119;-92
2024/03/16 11:03:43;;;;;;;0.10;0.10;;;9.20;99.90;;;;;;4907485;29;20087;-90
2024/03/16 11:06:12;;;;;;;0.10;0.10;;;;;;;;;;4914559;29;20024;-90
2024/03/16 11:08:42;;;;;;;0.10;0.10;;;9.30;99.90;;;;;;4915649;29;20471;-91
2024/03/16 11:11:15;;;;;;;0.10;0.10;;;9.30;99.90;;;;;;4901591;29;20100;-90
2024/03/16 11:14:08;;;;;;;0.10;0.10;;;9.20;99.90;;;;;;4902942;29;20520;-90
2024/03/16 11:16:46;;;;;;;0.10;0.10;;;9.10;99.90;;;;;;4901753;29;20031;-91
2024/03/16 11:19:21;;;;;;;0.10;0.10;;;9.10;99.90;;;;;;4898252;29;20036;-89
2024/03/16 11:21:54;;;;;;;0.10;0.10;;;;;;;;;;4897372;29;20021;-90
2024/03/16 11:24:21;;;;;;;0.10;0.10;;;9.30;99.90;;;;;;4895245;29;20032;-89
2024/03/16 11:26:47;;;;;;;0.10;0.10;;;9.30;99.90;;;;;;4899926;29;20490;-91
2024/03/16 11:29:16;;;;;;;0.00;0.00;;;8.90;99.90;;;;;;4902261;29;20032;-91
2024/03/16 11:31:53;;;;;;;0.10;0.10;;;9.10;99.90;;;;;;4900545;29;20079;-90
2024/03/16 11:34:20;;;;;;;0.10;0.10;;;;;;;;;;4906235;29;20032;-90
2024/03/16 11:36:50;;;;;;;0.00;0.00;;;9.30;99.90;;;;;;4899356;29;20192;-90
2024/03/16 11:39:24;;;;;;;0.10;0.10;;;9.30;99.90;;;;;;4898429;29;20076;-91
2024/03/16 11:41:50;;;;;;;0.10;0.10;;;;;;;;;;4898230;29;20431;-90
2024/03/16 11:44:16;;;;;;;0.10;0.10;;;9.30;99.90;;;;;;4903937;29;20027;-91
2024/03/16 11:46:44;;;;;;;0.10;0.10;;;9.50;99.90;;;;;;4901355;29;20085;-90
2024/03/16 11:49:11;;;;;;;0.10;0.10;;;10.30;99.90;;;;;;4902163;29;20406;-90
2024/03/16 11:51:38;;;;;;;0.00;0.00;;;;;;;;;;4895234;29;20028;-90
2024/03/16 11:54:10;;;;;;;0.10;0.10;;;9.80;99.90;;;;;;4906808;29;20657;-91
2024/03/16 11:56:36;;;;;;;0.00;0.00;;;;;;;;;;4902626;29;20025;-90
2024/03/16 11:59:05;;;;;;;0.10;0.10;;;;;;;;;;4904176;29;20085;-90
2024/03/16 12:01:36;;;;;;;0.10;0.10;;;10.10;99.90;;;;;;4897145;29;20031;-90
2024/03/16 12:04:03;;;;;;;0.10;0.10;;;10.10;99.90;;;;;;4900083;29;20055;-90
2024/03/16 12:06:31;;;;;;;0.10;0.10;;;9.90;99.90;;;;;;4901676;29;20025;-91
2024/03/16 12:08:57;;;;;;;0.00;0.00;;;;;;;;;;4896685;29;20586;-90
2024/03/16 12:11:23;;;;;;;0.10;0.10;;;9.90;99.90;;;;;;4901236;29;20119;-91
2024/03/16 12:13:51;;;;;;;0.10;0.10;;;;;;;;;;4899416;29;20042;-90
2024/03/16 12:16:17;;;;;;;0.00;0.00;;;;;;;;;;4899197;29;20036;-90
2024/03/16 12:18:43;;;;;;;0.00;0.00;;;;;;;;;;4899492;29;20080;-90
2024/03/16 12:21:09;;;;;;;0.10;0.10;;;;;;;;;;4904003;29;20087;-90
2024/03/16 12:23:38;;;;;;;0.00;0.00;;;10.10;99.90;;;;;;4900188;29;20419;-91
2024/03/16 12:26:09;;;;;;;0.10;0.10;;;10.20;99.90;;;;;;4896946;29;20036;-91
2024/03/16 12:28:35;;;;;;;0.10;0.10;;;;;;;;;;4895518;29;20032;-92
2024/03/16 12:31:01;;;;;;;0.10;0.10;;;;;;;;;;4906445;29;20450;-91
2024/03/16 12:33:27;;;;;;;0.10;0.10;;;;;;;;;;4902642;29;20036;-90
2024/03/16 12:35:53;;;;;;;0.10;0.10;;;;;;;;;;4900965;29;20481;-89
2024/03/16 12:38:19;;;;;;;0.05;0.05;;;;;;;;;;4905955;29;20036;-91
2024/03/16 12:40:45;;;;;;;0.10;0.10;;;10.30;99.90;;;;;;4897257;29;20032;-90
2024/03/16 12:43:10;;;;;;;0.10;0.10;;;10.30;99.90;;;;;;4899195;29;20064;-90
2024/03/16 12:45:36;;;;;;;0.10;0.10;;;;;;;;;;4907646;29;20020;-91
2024/03/16 12:48:02;;;;;;;0.10;0.10;;;;;;;;;;4899010;29;20068;-90
2024/03/16 12:50:28;;;;;;;0.00;0.00;;;;;;;;;;4907791;29;20025;-91
2024/03/16 12:52:53;;;;;;;0.00;0.00;;;10.50;99.90;;;;;;4897179;29;20123;-90
2024/03/16 12:55:20;;;;;;;0.00;0.00;;;;;;;;;;4903077;29;20029;-91
2024/03/16 12:57:47;;;;;;;0.03;0.03;;;;;;;;;;4901549;29;20029;-90
2024/03/16 13:00:13;;;;;;;0.00;0.00;;;;;;;;;;4905050;29;20039;-92
2024/03/16 13:02:39;;;;;;;0.00;0.00;;;;;;;;;;4912859;29;20095;-92
2024/03/16 13:05:11;;;;;;;0.00;0.00;;;10.60;99.90;;;;;;4908661;29;20096;-91
2024/03/16 13:07:39;;;;;;;0.00;0.00;;;;;;;;;;4900129;29;20407;-91
2024/03/16 13:10:05;;;;;;;0.00;0.00;;;11.00;99.90;;;;;;4902978;29;20777;-91
2024/03/16 13:12:31;;;;;;;0.08;0.08;;;;;;;;;;4905473;29;20104;-91
2024/03/16 13:14:57;;;;;;;0.00;0.00;;;10.90;99.90;;;;;;4907772;29;20092;-90
2024/03/16 13:17:22;;;;;;;0.00;0.00;;;10.90;99.90;;;;;;4899486;29;20086;-91
2024/03/16 13:19:49;;;;;;;0.00;0.00;;;;;;;;;;4901315;29;20060;-91
2024/03/16 13:22:16;;;;;;;0.10;0.10;;;;;;;;;;4900143;29;20457;-91
2024/03/16 13:24:42;;;;;;;0.00;0.00;;;;;;;;;;4899613;29;20025;-91
2024/03/16 13:27:09;;;;;;;0.00;0.00;;;10.70;99.90;;;;;;4903858;29;20426;-90
2024/03/16 13:29:36;;;;;;;0.00;0.00;;;;;;;;;;4903136;29;20028;-91
2024/03/16 13:32:03;;;;;;;0.00;0.00;;;;;;;;;;4903472;29;20486;-90
2024/03/16 13:34:29;;;;;;;0.10;0.10;;;;;;;;;;4905581;29;20056;-92
2024/03/16 13:36:55;;;;;;;0.00;0.00;;;;;;;;;;4900518;29;20052;-90
2024/03/16 13:39:25;;;;;;;0.10;0.10;;;;;;;;;;4905838;29;20036;-92
2024/03/16 13:41:50;;;;;;;0.10;0.10;;;;;;;;;;4916430;29;20417;-91
2024/03/16 13:44:16;;;;;;;0.03;0.03;;;;;;;;;;4905669;29;20025;-93
2024/03/16 13:46:42;;;;;;;0.00;0.00;;;;;;;;;;4910247;29;20028;-92
2024/03/16 13:49:08;;;;;;;0.00;0.00;;;10.00;99.90;;;;;;4908367;29;20037;-92
2024/03/16 13:51:34;;;;;;;0.00;0.00;;;;;;;;;;4905519;29;20561;-93
2024/03/16 13:54:00;;;;;;;0.00;0.00;;;;;;;;;;4906319;29;20035;-92
2024/03/16 13:56:26;;;;;;;0.00;0.00;;;;;;;;;;4905489;29;20119;-92
2024/03/16 13:58:52;;;;;;;0.00;0.00;;;10.30;99.90;;;;;;4901311;29;20040;-92
2024/03/16 14:01:20;;;;;;;0.00;0.00;;;10.30;99.90;;;;;;4918720;29;20028;-92
2024/03/16 14:03:47;;;;;;;0.00;0.00;;;10.40;99.90;;;;;;4905497;29;20522;-93
2024/03/16 14:06:13;;;;;;;0.00;0.00;;;;;;;;;;4905366;29;20056;-92
2024/03/16 14:08:40;;;;;;;0.10;0.10;;;;;;;;;;4910079;29;20036;-92
2024/03/16 14:11:07;;;;;;;0.08;0.08;;;;;;;;;;4909112;29;20123;-91
2024/03/16 14:13:33;;;;;;;0.00;0.00;;;;;;;;;;4909808;29;20450;-92
2024/03/16 14:15:58;;;;;;;0.10;0.10;;;10.40;99.90;;;;;;4905974;29;20052;-92
2024/03/16 14:18:24;;;;;;;0.00;0.00;;;;;;;;;;4908045;29;20056;-93
2024/03/16 14:20:50;;;;;;;0.00;0.00;;;;;;;;;;4909772;29;20032;-92
2024/03/16 14:23:16;;;;;;;0.00;0.00;;;10.90;99.90;;;;;;4913824;29;20039;-93
2024/03/16 14:25:42;;;;;;;0.00;0.00;;;;;;;;;;4900877;29;20043;-92
2024/03/16 14:28:08;;;;;;;0.00;0.00;;;10.80;99.90;;;;;;4901211;29;20024;-91
2024/03/16 14:30:35;;;;;;;0.00;0.00;;;;;;;;;;4902315;29;20025;-92
2024/03/16 14:33:01;;;;;;;0.03;0.03;;;10.90;99.90;;;;;;4906585;29;20383;-93
2024/03/16 14:35:27;;;;;;;0.00;0.00;;;;;;;;;;4918258;29;20032;-93
2024/03/16 14:37:53;;;;;;;0.00;0.00;;;;;;;;;;4912744;29;20033;-92
2024/03/16 14:40:21;;;;;;;0.00;0.00;;;11.20;99.90;;;;;;4909107;29;20063;-93
2024/03/16 14:42:47;;;;;;;0.00;0.00;;;;;;;;;;4907582;29;20033;-91
2024/03/16 14:45:17;;;;;;;0.00;0.00;;;;;;;;;;4907422;29;20036;-94
2024/03/16 14:47:42;;;;;;;0.00;0.00;;;11.50;99.90;;;;;;4918994;29;20028;-93
2024/03/16 14:50:08;;;;;;;0.00;0.00;;;11.30;99.90;;;;;;4913247;29;20854;-92
2024/03/16 14:52:35;;;;;;;0.00;0.00;;;;;;;;;;4906210;29;20024;-93
2024/03/16 14:55:06;;;;;;;0.00;0.00;;;10.70;99.90;;;;;;4917388;29;20028;-92
2024/03/16 14:57:34;;;;;;;0.00;0.00;;;;;;;;;;4914761;29;20036;-93
2024/03/16 15:00:00;;;;;;;0.00;0.00;;;;;;;;;;4902336;29;20433;-92
2024/03/16 15:02:26;;;;;;;0.03;0.03;;;;;;;;;;4908813;29;20040;-92
2024/03/16 15:04:53;;;;;;;0.00;0.00;;;;;;;;;;4907623;29;20112;-92
2024/03/16 15:07:19;;;;;;;0.10;0.10;;;;;;;;;;4902612;29;20020;-92
2024/03/16 15:09:46;;;;;;;0.00;0.00;;;10.30;99.90;;;;;;4910187;29;20094;-91
2024/03/16 15:12:12;;;;;;;0.08;0.08;;;10.40;99.90;;;;;;4915026;29;20043;-92
2024/03/16 15:14:38;;;;;;;0.00;0.00;;;;;;;;;;4910499;29;20036;-92
2024/03/16 15:17:04;;;;;;;0.00;0.00;;;;;;;;;;4908111;29;20036;-91
2024/03/16 15:19:30;;;;;;;0.00;0.00;;;;;;;;;;4912003;29;20028;-92
2024/03/16 15:21:56;;;;;;;0.00;0.00;;;;;;;;;;4910719;29;20031;-92
2024/03/16 15:24:22;;;;;;;0.05;0.05;;;10.30;99.90;;;;;;4904508;29;20029;-92
2024/03/16 15:26:55;;;;;;;0.00;0.00;;;10.30;99.90;;;;;;4911359;29;20063;-92
2024/03/16 15:29:22;;;;;;;0.05;0.05;;;10.60;99.90;;;;;;4916758;29;20028;-92
2024/03/16 15:31:51;;;;;;;0.00;0.00;;;;;;;;;;4909112;29;20056;-93
2024/03/16 15:34:17;;;;;;;0.00;0.00;;;;;;;;;;4913483;29;20031;-92
2024/03/16 15:36:45;;;;;;;0.00;0.00;;;10.80;99.90;;;;;;4911577;29;20690;-92
2024/03/16 15:39:12;;;;;;;0.00;0.00;;;;;;;;;;4915509;29;20075;-92
2024/03/16 15:41:40;;;;;;;0.00;0.00;;;;;;;;;;4909400;29;20088;-92
2024/03/16 15:44:06;;;;;;;0.00;0.00;;;;;;;;;;4909555;29;20024;-89
2024/03/16 15:46:32;;;;;;;0.00;0.00;;;;;;;;;;4906710;29;20029;-92
2024/03/16 15:48:58;;;;;;;0.00;0.00;;;;;;;;;;4916098;29;20023;-91
2024/03/16 15:51:26;;;;;;;0.00;0.00;;;;;;;;;;4908191;29;20075;-92
2024/03/16 15:53:52;;;;;;;0.00;0.00;;;;;;;;;;4917480;29;20477;-90
2024/03/16 15:56:18;;;;;;;0.00;0.00;;;11.10;99.90;;;;;;4913588;29;20072;-92
2024/03/16 15:58:44;;;;;;;0.00;0.00;;;;;;;;;;4916218;29;20024;-91
2024/03/16 16:01:10;;;;;;;0.00;0.00;;;;;;;;;;4912675;29;20040;-92
2024/03/16 16:03:36;;;;;;;0.10;0.10;;;;;;;;;;4903515;29;20009;-92
2024/03/16 16:06:02;;;;;;;0.00;0.00;;;;;;;;;;4904721;29;20024;-92
2024/03/16 16:08:28;;;;;;;0.00;0.00;;;;;;;;;;4909568;29;20031;-91
2024/03/16 16:10:54;;;;;;;0.00;0.00;;;10.80;99.90;;;;;;4902257;29;20036;-92
2024/03/16 16:13:23;;;;;;;0.10;0.10;;;;;;;;;;4909886;29;20040;-91
2024/03/16 16:15:49;;;;;;;0.00;0.00;;;10.60;99.90;;;;;;4917371;29;20530;-92
2024/03/16 16:18:15;;;;;;;0.10;0.10;;;;;;;;;;4907601;29;20040;-92
2024/03/16 16:20:41;;;;;;;0.00;0.00;;;;;;;;;;4914536;29;20037;-92
2024/03/16 16:23:07;;;;;;;0.00;0.00;;;;;;;;;;4913635;29;20024;-91
2024/03/16 16:25:35;;;;;;;0.00;0.00;;;;;;;;;;4909874;29;20051;-92
2024/03/16 16:28:02;;;;;;;0.00;0.00;;;;;;;;;;4911428;29;20039;-91
2024/03/16 16:30:28;;;;;;;0.00;0.00;;;;;;;;;;4906590;29;20434;-91
2024/03/16 16:32:53;;;;;;;0.00;0.00;;;10.00;99.90;;;;;;4911211;29;20035;-91
2024/03/16 16:35:19;;;;;;;0.00;0.00;;;;;;;;;;4902551;29;20041;-91
2024/03/16 16:37:45;;;;;;;0.00;0.00;;;;;;;;;;4910244;29;20036;-92
2024/03/16 16:40:12;;;;;;;0.00;0.00;;;;;;;;;;4904765;29;20036;-91
2024/03/16 16:42:38;;;;;;;0.10;0.10;;;;;;;;;;4916342;29;20035;-92
2024/03/16 16:45:05;;;;;;;0.10;0.10;;;;;;;;;;4915973;29;20618;-92
2024/03/16 16:47:31;;;;;;;0.00;0.00;;;;;;;;;;4916125;29;20032;-92
2024/03/16 16:50:00;;;;;;;0.00;0.00;;;;;;;;;;4909824;29;20036;-92
2024/03/16 16:52:27;;;;;;;0.10;0.10;;;;;;;;;;4902584;29;20032;-92
2024/03/16 16:54:53;;;;;;;0.00;0.00;;;;;;;;;;4908692;29;20060;-91
2024/03/16 16:57:19;;;;;;;0.03;0.03;;;;;;;;;;4911898;29;20028;-92
2024/03/16 16:59:45;;;;;;;0.10;0.10;;;;;;;;;;4908907;29;20045;-92
2024/03/16 17:02:11;;;;;;;0.00;0.00;;;;;;;;;;4915971;29;20048;-92
2024/03/16 17:04:39;;;;;;;0.00;0.00;;;;;;;;;;4917271;29;20056;-92
2024/03/16 17:07:05;;;;;;;0.00;0.00;;;;;;;;;;4915856;29;20160;-92
2024/03/16 17:09:30;;;;;;;0.10;0.10;;;;;;;;;;4908569;29;20036;-92
2024/03/16 17:11:57;;;;;;;0.00;0.00;;;;;;;;;;4909992;29;20033;-92
2024/03/16 17:14:24;;;;;;;0.00;0.00;;;;;;;;;;4903674;29;20044;-93
2024/03/16 17:16:51;;;;;;;0.00;0.00;;;;;;;;;;4904652;29;20372;-91
2024/03/16 17:19:17;;;;;;;0.00;0.00;;;;;;;;;;4908050;29;20068;-93
2024/03/16 17:21:43;;;;;;;0.00;0.00;;;;;;;;;;4912098;29;20416;-92
2024/03/16 17:24:09;;;;;;;0.00;0.00;;;;;;;;;;4909584;29;20382;-92
2024/03/16 17:26:36;;;;;;;0.00;0.00;;;;;;;;;;4917618;29;20028;-93
2024/03/16 17:29:07;;;;;;;0.00;0.00;;;;;;;;;;4914113;29;20037;-92
2024/03/16 17:31:33;;;;;;;0.00;0.00;;;;;;;;;;4915086;29;20034;-92
2024/03/16 17:34:03;;;;;;;0.00;0.00;;;;;;;;;;4908261;29;20028;-92
2024/03/16 17:36:29;;;;;;;0.00;0.00;;;;;;;;;;4911376;29;20044;-92
2024/03/16 17:38:56;;;;;;;0.05;0.05;;;;;;;;;;4910740;29;20071;-92
2024/03/16 17:41:22;;;;;;;0.00;0.00;;;;;;;;;;4909356;29;20080;-92